sensor_id;sensor_type;location;lat;lon;timestamp;P1;durP1;ratioP1;P2;durP2;ratioP2
34278;SDS011;20538;51.528;9.942;2022-10-17T00:01:09;6.68;;;5.15;;
34278;SDS011;20538;51.528;9.942;2022-10-17T00:03:36;6.70;;;4.82;;
34278;SDS011;20538;51.528;9.942;2022-10-17T00:06:06;6.88;;;5.30;;
34278;SDS011;20538;51.528;9.942;2022-10-17T00:08:34;7.43;;;5.30;;
34278;SDS011;20538;51.528;9.942;2022-10-17T00:11:02;7.70;;;5.70;;
34278;SDS011;20538;51.528;9.942;2022-10-17T00:13:30;7.65;;;4.68;;
34278;SDS011;20538;51.528;9.942;2022-10-17T00:15:56;9.52;;;4.78;;
34278;SDS011;20538;51.528;9.942;2022-10-17T00:18:22;9.23;;;4.90;;
34278;SDS011;20538;51.528;9.942;2022-10-17T00:20:48;8.27;;;4.90;;
34278;SDS011;20538;51.528;9.942;2022-10-17T00:23:14;7.32;;;4.50;;
34278;SDS011;20538;51.528;9.942;2022-10-17T00:25:40;7.45;;;5.18;;
34278;SDS011;20538;51.528;9.942;2022-10-17T00:28:09;6.18;;;4.80;;
34278;SDS011;20538;51.528;9.942;2022-10-17T00:30:35;5.75;;;4.78;;
34278;SDS011;20538;51.528;9.942;2022-10-17T00:33:01;6.47;;;4.32;;
34278;SDS011;20538;51.528;9.942;2022-10-17T00:35:27;8.07;;;4.68;;
34278;SDS011;20538;51.528;9.942;2022-10-17T00:37:52;8.20;;;4.65;;
34278;SDS011;20538;51.528;9.942;2022-10-17T00:40:18;7.47;;;4.50;;
34278;SDS011;20538;51.528;9.942;2022-10-17T00:42:44;6.45;;;4.07;;
34278;SDS011;20538;51.528;9.942;2022-10-17T00:45:16;8.43;;;5.03;;
34278;SDS011;20538;51.528;9.942;2022-10-17T00:47:49;6.68;;;4.10;;
34278;SDS011;20538;51.528;9.942;2022-10-17T00:50:19;6.68;;;4.53;;
34278;SDS011;20538;51.528;9.942;2022-10-17T00:52:46;4.90;;;3.97;;
34278;SDS011;20538;51.528;9.942;2022-10-17T00:55:15;8.55;;;4.20;;
34278;SDS011;20538;51.528;9.942;2022-10-17T01:00:16;6.68;;;3.97;;
34278;SDS011;20538;51.528;9.942;2022-10-17T01:02:42;6.30;;;3.97;;
34278;SDS011;20538;51.528;9.942;2022-10-17T01:05:08;5.95;;;4.03;;
34278;SDS011;20538;51.528;9.942;2022-10-17T01:07:35;6.53;;;4.10;;
34278;SDS011;20538;51.528;9.942;2022-10-17T01:10:02;5.90;;;3.92;;
34278;SDS011;20538;51.528;9.942;2022-10-17T01:13:33;6.03;;;3.50;;
34278;SDS011;20538;51.528;9.942;2022-10-17T01:18:14;4.50;;;3.63;;
34278;SDS011;20538;51.528;9.942;2022-10-17T01:31:46;6.28;;;3.70;;
34278;SDS011;20538;51.528;9.942;2022-10-17T01:34:32;7.65;;;3.90;;
34278;SDS011;20538;51.528;9.942;2022-10-17T01:37:14;6.88;;;3.33;;
34278;SDS011;20538;51.528;9.942;2022-10-17T01:47:47;7.75;;;3.72;;
34278;SDS011;20538;51.528;9.942;2022-10-17T01:50:17;4.32;;;3.40;;
34278;SDS011;20538;51.528;9.942;2022-10-17T01:52:50;7.13;;;3.30;;
34278;SDS011;20538;51.528;9.942;2022-10-17T01:55:25;7.47;;;3.35;;
34278;SDS011;20538;51.528;9.942;2022-10-17T01:58:00;5.60;;;3.63;;
34278;SDS011;20538;51.528;9.942;2022-10-17T02:00:30;3.90;;;2.97;;
34278;SDS011;20538;51.528;9.942;2022-10-17T02:02:59;3.75;;;3.15;;
34278;SDS011;20538;51.528;9.942;2022-10-17T02:05:30;7.47;;;3.88;;
34278;SDS011;20538;51.528;9.942;2022-10-17T02:07:59;5.32;;;3.70;;
34278;SDS011;20538;51.528;9.942;2022-10-17T02:10:48;12.38;;;3.70;;
34278;SDS011;20538;51.528;9.942;2022-10-17T02:24:31;11.27;;;4.50;;
34278;SDS011;20538;51.528;9.942;2022-10-17T02:29:30;7.13;;;4.82;;
34278;SDS011;20538;51.528;9.942;2022-10-17T02:34:44;7.40;;;5.03;;
34278;SDS011;20538;51.528;9.942;2022-10-17T02:37:12;9.50;;;4.65;;
34278;SDS011;20538;51.528;9.942;2022-10-17T02:39:42;7.90;;;4.55;;
34278;SDS011;20538;51.528;9.942;2022-10-17T02:42:09;8.13;;;5.07;;
34278;SDS011;20538;51.528;9.942;2022-10-17T02:44:37;6.85;;;4.53;;
34278;SDS011;20538;51.528;9.942;2022-10-17T02:47:26;13.27;;;5.00;;
34278;SDS011;20538;51.528;9.942;2022-10-17T02:50:12;8.52;;;4.80;;
34278;SDS011;20538;51.528;9.942;2022-10-17T02:55:18;9.30;;;4.63;;
34278;SDS011;20538;51.528;9.942;2022-10-17T02:58:10;6.80;;;4.82;;
34278;SDS011;20538;51.528;9.942;2022-10-17T03:00:40;7.88;;;4.28;;
34278;SDS011;20538;51.528;9.942;2022-10-17T03:03:17;9.05;;;4.60;;
34278;SDS011;20538;51.528;9.942;2022-10-17T03:06:00;5.45;;;4.38;;
34278;SDS011;20538;51.528;9.942;2022-10-17T03:08:26;8.25;;;4.40;;
34278;SDS011;20538;51.528;9.942;2022-10-17T03:10:52;4.80;;;4.30;;
34278;SDS011;20538;51.528;9.942;2022-10-17T03:13:18;8.20;;;5.07;;
34278;SDS011;20538;51.528;9.942;2022-10-17T03:15:43;10.20;;;4.55;;
34278;SDS011;20538;51.528;9.942;2022-10-17T03:18:09;6.70;;;4.80;;
34278;SDS011;20538;51.528;9.942;2022-10-17T03:20:35;8.20;;;4.35;;
34278;SDS011;20538;51.528;9.942;2022-10-17T03:23:00;5.10;;;3.92;;
34278;SDS011;20538;51.528;9.942;2022-10-17T03:25:26;5.50;;;4.30;;
34278;SDS011;20538;51.528;9.942;2022-10-17T03:27:52;8.15;;;4.38;;
34278;SDS011;20538;51.528;9.942;2022-10-17T03:30:18;8.10;;;4.57;;
34278;SDS011;20538;51.528;9.942;2022-10-17T03:32:43;7.80;;;5.07;;
34278;SDS011;20538;51.528;9.942;2022-10-17T03:35:09;9.20;;;4.05;;
34278;SDS011;20538;51.528;9.942;2022-10-17T03:37:35;7.95;;;4.22;;
34278;SDS011;20538;51.528;9.942;2022-10-17T03:40:00;5.25;;;4.10;;
34278;SDS011;20538;51.528;9.942;2022-10-17T03:42:26;6.20;;;4.20;;
34278;SDS011;20538;51.528;9.942;2022-10-17T03:44:52;5.63;;;4.28;;
34278;SDS011;20538;51.528;9.942;2022-10-17T03:47:18;4.80;;;3.83;;
34278;SDS011;20538;51.528;9.942;2022-10-17T03:49:43;5.25;;;3.90;;
34278;SDS011;20538;51.528;9.942;2022-10-17T03:52:12;10.90;;;3.85;;
34278;SDS011;20538;51.528;9.942;2022-10-17T03:54:38;5.38;;;3.72;;
34278;SDS011;20538;51.528;9.942;2022-10-17T03:57:04;8.75;;;4.30;;
34278;SDS011;20538;51.528;9.942;2022-10-17T03:59:30;5.00;;;3.60;;
34278;SDS011;20538;51.528;9.942;2022-10-17T04:01:55;8.15;;;4.13;;
34278;SDS011;20538;51.528;9.942;2022-10-17T04:04:21;7.35;;;4.10;;
34278;SDS011;20538;51.528;9.942;2022-10-17T04:06:47;5.53;;;3.80;;
34278;SDS011;20538;51.528;9.942;2022-10-17T04:09:12;9.27;;;4.00;;
34278;SDS011;20538;51.528;9.942;2022-10-17T04:11:38;5.13;;;3.60;;
34278;SDS011;20538;51.528;9.942;2022-10-17T04:14:04;9.55;;;4.05;;
34278;SDS011;20538;51.528;9.942;2022-10-17T04:16:30;6.97;;;3.58;;
34278;SDS011;20538;51.528;9.942;2022-10-17T04:18:56;6.45;;;3.70;;
34278;SDS011;20538;51.528;9.942;2022-10-17T04:21:23;6.43;;;4.05;;
34278;SDS011;20538;51.528;9.942;2022-10-17T04:23:54;6.65;;;4.13;;
34278;SDS011;20538;51.528;9.942;2022-10-17T04:26:21;7.88;;;4.80;;
34278;SDS011;20538;51.528;9.942;2022-10-17T04:28:47;8.15;;;4.00;;
34278;SDS011;20538;51.528;9.942;2022-10-17T04:31:13;11.00;;;3.90;;
34278;SDS011;20538;51.528;9.942;2022-10-17T04:33:39;5.93;;;3.70;;
34278;SDS011;20538;51.528;9.942;2022-10-17T04:36:12;6.78;;;3.58;;
34278;SDS011;20538;51.528;9.942;2022-10-17T04:38:39;7.13;;;3.88;;
34278;SDS011;20538;51.528;9.942;2022-10-17T04:41:06;13.98;;;4.63;;
34278;SDS011;20538;51.528;9.942;2022-10-17T04:43:35;6.10;;;4.10;;
34278;SDS011;20538;51.528;9.942;2022-10-17T04:46:03;13.68;;;4.65;;
34278;SDS011;20538;51.528;9.942;2022-10-17T04:48:33;4.78;;;4.15;;
34278;SDS011;20538;51.528;9.942;2022-10-17T04:51:00;10.55;;;4.85;;
34278;SDS011;20538;51.528;9.942;2022-10-17T04:53:29;8.13;;;4.97;;
34278;SDS011;20538;51.528;9.942;2022-10-17T04:55:55;6.82;;;3.90;;
34278;SDS011;20538;51.528;9.942;2022-10-17T04:58:21;8.60;;;4.80;;
34278;SDS011;20538;51.528;9.942;2022-10-17T05:00:47;6.47;;;3.80;;
34278;SDS011;20538;51.528;9.942;2022-10-17T05:03:12;7.10;;;3.80;;
34278;SDS011;20538;51.528;9.942;2022-10-17T05:05:39;8.00;;;4.10;;
34278;SDS011;20538;51.528;9.942;2022-10-17T05:08:06;6.60;;;3.80;;
34278;SDS011;20538;51.528;9.942;2022-10-17T05:10:37;5.07;;;4.07;;
34278;SDS011;20538;51.528;9.942;2022-10-17T05:13:06;9.05;;;4.18;;
34278;SDS011;20538;51.528;9.942;2022-10-17T05:15:33;6.50;;;3.85;;
34278;SDS011;20538;51.528;9.942;2022-10-17T05:17:59;6.57;;;3.80;;
34278;SDS011;20538;51.528;9.942;2022-10-17T05:20:25;6.82;;;4.38;;
34278;SDS011;20538;51.528;9.942;2022-10-17T05:22:51;7.53;;;4.13;;
34278;SDS011;20538;51.528;9.942;2022-10-17T05:25:17;4.65;;;3.30;;
34278;SDS011;20538;51.528;9.942;2022-10-17T05:27:43;8.52;;;3.88;;
34278;SDS011;20538;51.528;9.942;2022-10-17T05:30:09;6.45;;;4.40;;
34278;SDS011;20538;51.528;9.942;2022-10-17T05:32:35;4.93;;;3.63;;
34278;SDS011;20538;51.528;9.942;2022-10-17T05:35:00;4.97;;;3.65;;
34278;SDS011;20538;51.528;9.942;2022-10-17T05:37:28;5.10;;;3.85;;
34278;SDS011;20538;51.528;9.942;2022-10-17T05:39:55;13.57;;;3.85;;
34278;SDS011;20538;51.528;9.942;2022-10-17T05:42:21;9.07;;;4.10;;
34278;SDS011;20538;51.528;9.942;2022-10-17T05:44:47;7.18;;;4.13;;
34278;SDS011;20538;51.528;9.942;2022-10-17T05:47:13;6.72;;;4.03;;
34278;SDS011;20538;51.528;9.942;2022-10-17T05:49:39;6.85;;;3.97;;
34278;SDS011;20538;51.528;9.942;2022-10-17T05:52:04;11.23;;;4.18;;
34278;SDS011;20538;51.528;9.942;2022-10-17T05:54:30;10.20;;;3.97;;
34278;SDS011;20538;51.528;9.942;2022-10-17T05:56:56;5.18;;;3.65;;
34278;SDS011;20538;51.528;9.942;2022-10-17T05:59:23;9.57;;;3.42;;
34278;SDS011;20538;51.528;9.942;2022-10-17T06:01:50;6.32;;;3.78;;
34278;SDS011;20538;51.528;9.942;2022-10-17T06:04:15;5.65;;;3.50;;
34278;SDS011;20538;51.528;9.942;2022-10-17T06:06:41;10.20;;;4.43;;
34278;SDS011;20538;51.528;9.942;2022-10-17T06:09:07;4.97;;;3.75;;
34278;SDS011;20538;51.528;9.942;2022-10-17T06:11:33;7.70;;;3.80;;
34278;SDS011;20538;51.528;9.942;2022-10-17T06:13:59;7.10;;;3.90;;
34278;SDS011;20538;51.528;9.942;2022-10-17T06:16:26;8.13;;;3.90;;
34278;SDS011;20538;51.528;9.942;2022-10-17T06:18:51;8.02;;;3.53;;
34278;SDS011;20538;51.528;9.942;2022-10-17T06:21:20;7.00;;;3.70;;
34278;SDS011;20538;51.528;9.942;2022-10-17T06:23:47;6.85;;;3.50;;
34278;SDS011;20538;51.528;9.942;2022-10-17T06:26:13;9.13;;;3.53;;
34278;SDS011;20538;51.528;9.942;2022-10-17T06:28:39;4.68;;;2.92;;
34278;SDS011;20538;51.528;9.942;2022-10-17T06:31:09;6.35;;;3.53;;
34278;SDS011;20538;51.528;9.942;2022-10-17T06:33:37;9.23;;;4.10;;
34278;SDS011;20538;51.528;9.942;2022-10-17T06:36:04;8.48;;;3.50;;
34278;SDS011;20538;51.528;9.942;2022-10-17T06:38:32;6.70;;;3.15;;
34278;SDS011;20538;51.528;9.942;2022-10-17T06:41:02;11.45;;;3.38;;
34278;SDS011;20538;51.528;9.942;2022-10-17T06:43:38;6.95;;;3.30;;
34278;SDS011;20538;51.528;9.942;2022-10-17T06:46:05;6.72;;;3.10;;
34278;SDS011;20538;51.528;9.942;2022-10-17T06:48:31;6.55;;;3.47;;
34278;SDS011;20538;51.528;9.942;2022-10-17T06:51:00;6.60;;;3.17;;
34278;SDS011;20538;51.528;9.942;2022-10-17T06:53:27;9.02;;;3.40;;
34278;SDS011;20538;51.528;9.942;2022-10-17T06:55:53;9.32;;;3.60;;
34278;SDS011;20538;51.528;9.942;2022-10-17T06:58:19;6.38;;;3.17;;
34278;SDS011;20538;51.528;9.942;2022-10-17T07:00:45;7.60;;;3.22;;
34278;SDS011;20538;51.528;9.942;2022-10-17T07:03:11;9.73;;;2.85;;
34278;SDS011;20538;51.528;9.942;2022-10-17T07:05:36;9.93;;;3.78;;
34278;SDS011;20538;51.528;9.942;2022-10-17T07:08:03;7.78;;;2.60;;
34278;SDS011;20538;51.528;9.942;2022-10-17T07:10:29;8.15;;;2.70;;
34278;SDS011;20538;51.528;9.942;2022-10-17T07:12:54;8.38;;;3.15;;
34278;SDS011;20538;51.528;9.942;2022-10-17T07:15:20;7.07;;;2.85;;
34278;SDS011;20538;51.528;9.942;2022-10-17T07:17:49;4.30;;;2.60;;
34278;SDS011;20538;51.528;9.942;2022-10-17T07:20:14;7.80;;;3.00;;
34278;SDS011;20538;51.528;9.942;2022-10-17T07:22:40;6.88;;;2.95;;
34278;SDS011;20538;51.528;9.942;2022-10-17T07:25:06;10.00;;;2.70;;
34278;SDS011;20538;51.528;9.942;2022-10-17T07:27:32;6.70;;;2.33;;
34278;SDS011;20538;51.528;9.942;2022-10-17T07:29:58;8.40;;;4.47;;
34278;SDS011;20538;51.528;9.942;2022-10-17T07:32:24;4.70;;;2.80;;
34278;SDS011;20538;51.528;9.942;2022-10-17T07:34:49;4.57;;;2.63;;
34278;SDS011;20538;51.528;9.942;2022-10-17T07:37:15;4.63;;;3.00;;
34278;SDS011;20538;51.528;9.942;2022-10-17T07:39:40;7.18;;;2.60;;
34278;SDS011;20538;51.528;9.942;2022-10-17T07:42:06;7.70;;;2.80;;
34278;SDS011;20538;51.528;9.942;2022-10-17T07:44:32;6.07;;;2.60;;
34278;SDS011;20538;51.528;9.942;2022-10-17T07:46:59;5.03;;;2.78;;
34278;SDS011;20538;51.528;9.942;2022-10-17T07:49:25;8.43;;;2.80;;
34278;SDS011;20538;51.528;9.942;2022-10-17T07:51:50;10.13;;;2.25;;
34278;SDS011;20538;51.528;9.942;2022-10-17T07:54:16;4.22;;;2.33;;
34278;SDS011;20538;51.528;9.942;2022-10-17T07:56:41;6.28;;;2.60;;
34278;SDS011;20538;51.528;9.942;2022-10-17T07:59:07;6.93;;;2.50;;
34278;SDS011;20538;51.528;9.942;2022-10-17T08:01:33;9.25;;;2.78;;
34278;SDS011;20538;51.528;9.942;2022-10-17T08:03:58;4.40;;;2.75;;
34278;SDS011;20538;51.528;9.942;2022-10-17T08:06:24;6.43;;;3.08;;
34278;SDS011;20538;51.528;9.942;2022-10-17T08:08:50;13.52;;;3.60;;
34278;SDS011;20538;51.528;9.942;2022-10-17T08:11:15;3.28;;;2.47;;
34278;SDS011;20538;51.528;9.942;2022-10-17T08:13:41;4.57;;;2.67;;
34278;SDS011;20538;51.528;9.942;2022-10-17T08:16:08;6.90;;;2.67;;
34278;SDS011;20538;51.528;9.942;2022-10-17T08:18:37;6.35;;;2.60;;
34278;SDS011;20538;51.528;9.942;2022-10-17T08:21:04;8.10;;;3.40;;
34278;SDS011;20538;51.528;9.942;2022-10-17T08:23:32;4.72;;;2.47;;
34278;SDS011;20538;51.528;9.942;2022-10-17T08:25:58;5.75;;;2.85;;
34278;SDS011;20538;51.528;9.942;2022-10-17T08:28:25;3.85;;;2.70;;
34278;SDS011;20538;51.528;9.942;2022-10-17T08:30:50;4.63;;;2.25;;
34278;SDS011;20538;51.528;9.942;2022-10-17T08:33:16;4.25;;;2.47;;
34278;SDS011;20538;51.528;9.942;2022-10-17T08:35:41;3.53;;;2.47;;
34278;SDS011;20538;51.528;9.942;2022-10-17T08:38:07;8.68;;;2.20;;
34278;SDS011;20538;51.528;9.942;2022-10-17T08:40:33;4.57;;;2.20;;
34278;SDS011;20538;51.528;9.942;2022-10-17T08:45:57;4.05;;;2.58;;
34278;SDS011;20538;51.528;9.942;2022-10-17T08:48:27;9.85;;;2.60;;
34278;SDS011;20538;51.528;9.942;2022-10-17T08:50:58;5.63;;;2.63;;
34278;SDS011;20538;51.528;9.942;2022-10-17T08:53:30;4.03;;;2.40;;
34278;SDS011;20538;51.528;9.942;2022-10-17T08:55:57;6.15;;;2.55;;
34278;SDS011;20538;51.528;9.942;2022-10-17T08:58:32;3.47;;;2.40;;
34278;SDS011;20538;51.528;9.942;2022-10-17T09:01:09;13.15;;;2.72;;
34278;SDS011;20538;51.528;9.942;2022-10-17T09:03:50;8.27;;;2.53;;
34278;SDS011;20538;51.528;9.942;2022-10-17T09:06:46;6.95;;;2.55;;
34278;SDS011;20538;51.528;9.942;2022-10-17T09:09:28;3.65;;;2.30;;
34278;SDS011;20538;51.528;9.942;2022-10-17T09:17:52;4.10;;;2.40;;
34278;SDS011;20538;51.528;9.942;2022-10-17T09:20:20;4.75;;;2.40;;
34278;SDS011;20538;51.528;9.942;2022-10-17T09:23:42;6.22;;;2.22;;
34278;SDS011;20538;51.528;9.942;2022-10-17T09:25:50;5.03;;;2.72;;
34278;SDS011;20538;51.528;9.942;2022-10-17T09:28:20;7.22;;;2.72;;
34278;SDS011;20538;51.528;9.942;2022-10-17T09:30:56;7.85;;;2.58;;
34278;SDS011;20538;51.528;9.942;2022-10-17T09:33:25;6.18;;;2.45;;
34278;SDS011;20538;51.528;9.942;2022-10-17T09:35:53;4.35;;;2.50;;
34278;SDS011;20538;51.528;9.942;2022-10-17T09:38:23;10.13;;;3.75;;
34278;SDS011;20538;51.528;9.942;2022-10-17T09:40:55;7.95;;;2.10;;
34278;SDS011;20538;51.528;9.942;2022-10-17T09:43:23;5.80;;;2.92;;
34278;SDS011;20538;51.528;9.942;2022-10-17T09:45:58;4.63;;;2.75;;
34278;SDS011;20538;51.528;9.942;2022-10-17T09:48:52;6.80;;;2.90;;
34278;SDS011;20538;51.528;9.942;2022-10-17T09:51:33;9.68;;;3.30;;
34278;SDS011;20538;51.528;9.942;2022-10-17T09:54:02;8.90;;;3.00;;
34278;SDS011;20538;51.528;9.942;2022-10-17T09:56:31;6.82;;;2.50;;
34278;SDS011;20538;51.528;9.942;2022-10-17T09:59:30;11.02;;;3.03;;
34278;SDS011;20538;51.528;9.942;2022-10-17T10:04:55;11.43;;;2.88;;
34278;SDS011;20538;51.528;9.942;2022-10-17T10:07:40;8.43;;;2.83;;
34278;SDS011;20538;51.528;9.942;2022-10-17T10:10:22;4.07;;;2.45;;
34278;SDS011;20538;51.528;9.942;2022-10-17T10:13:01;6.80;;;2.80;;
34278;SDS011;20538;51.528;9.942;2022-10-17T10:15:31;4.38;;;2.63;;
34278;SDS011;20538;51.528;9.942;2022-10-17T10:17:59;7.88;;;2.65;;
34278;SDS011;20538;51.528;9.942;2022-10-17T10:23:05;6.95;;;2.78;;
34278;SDS011;20538;51.528;9.942;2022-10-17T10:25:35;6.35;;;2.72;;
34278;SDS011;20538;51.528;9.942;2022-10-17T10:28:00;4.82;;;2.92;;
34278;SDS011;20538;51.528;9.942;2022-10-17T10:30:33;5.53;;;2.95;;
34278;SDS011;20538;51.528;9.942;2022-10-17T10:32:58;7.18;;;2.38;;
34278;SDS011;20538;51.528;9.942;2022-10-17T10:35:32;6.20;;;2.50;;
34278;SDS011;20538;51.528;9.942;2022-10-17T10:38:00;5.10;;;2.38;;
34278;SDS011;20538;51.528;9.942;2022-10-17T10:40:36;6.50;;;2.70;;
34278;SDS011;20538;51.528;9.942;2022-10-17T10:43:15;4.65;;;2.00;;
34278;SDS011;20538;51.528;9.942;2022-10-17T10:45:56;5.30;;;2.40;;
34278;SDS011;20538;51.528;9.942;2022-10-17T10:48:40;7.68;;;2.60;;
34278;SDS011;20538;51.528;9.942;2022-10-17T10:51:26;7.53;;;2.85;;
34278;SDS011;20538;51.528;9.942;2022-10-17T10:56:40;6.25;;;2.50;;
34278;SDS011;20538;51.528;9.942;2022-10-17T10:59:21;6.65;;;2.67;;
34278;SDS011;20538;51.528;9.942;2022-10-17T11:02:03;10.07;;;2.47;;
34278;SDS011;20538;51.528;9.942;2022-10-17T11:04:58;5.20;;;2.50;;
34278;SDS011;20538;51.528;9.942;2022-10-17T11:10:22;8.93;;;2.38;;
34278;SDS011;20538;51.528;9.942;2022-10-17T11:13:04;6.03;;;2.28;;
34278;SDS011;20538;51.528;9.942;2022-10-17T11:18:41;7.93;;;3.88;;
34278;SDS011;20538;51.528;9.942;2022-10-17T11:21:22;6.38;;;2.65;;
34278;SDS011;20538;51.528;9.942;2022-10-17T11:24:29;9.15;;;2.90;;
34278;SDS011;20538;51.528;9.942;2022-10-17T11:27:02;5.68;;;2.47;;
34278;SDS011;20538;51.528;9.942;2022-10-17T11:29:32;5.85;;;1.88;;
34278;SDS011;20538;51.528;9.942;2022-10-17T11:32:01;6.15;;;2.50;;
34278;SDS011;20538;51.528;9.942;2022-10-17T11:34:50;8.38;;;2.33;;
34278;SDS011;20538;51.528;9.942;2022-10-17T11:37:29;5.85;;;2.83;;
34278;SDS011;20538;51.528;9.942;2022-10-17T11:40:02;9.52;;;2.38;;
34278;SDS011;20538;51.528;9.942;2022-10-17T11:42:33;8.07;;;1.90;;
34278;SDS011;20538;51.528;9.942;2022-10-17T11:45:24;4.03;;;2.10;;
34278;SDS011;20538;51.528;9.942;2022-10-17T11:47:56;11.43;;;2.35;;
34278;SDS011;20538;51.528;9.942;2022-10-17T11:50:33;4.28;;;2.33;;
34278;SDS011;20538;51.528;9.942;2022-10-17T11:53:18;6.25;;;2.15;;
34278;SDS011;20538;51.528;9.942;2022-10-17T11:55:46;5.57;;;2.00;;
34278;SDS011;20538;51.528;9.942;2022-10-17T12:08:43;4.75;;;2.00;;
34278;SDS011;20538;51.528;9.942;2022-10-17T12:17:02;4.45;;;1.88;;
34278;SDS011;20538;51.528;9.942;2022-10-17T12:19:49;3.03;;;2.00;;
34278;SDS011;20538;51.528;9.942;2022-10-17T12:22:22;7.07;;;2.95;;
34278;SDS011;20538;51.528;9.942;2022-10-17T12:27:33;4.47;;;1.70;;
34278;SDS011;20538;51.528;9.942;2022-10-17T12:30:04;9.80;;;2.42;;
34278;SDS011;20538;51.528;9.942;2022-10-17T12:32:53;4.85;;;1.90;;
34278;SDS011;20538;51.528;9.942;2022-10-17T12:35:38;9.43;;;2.22;;
34278;SDS011;20538;51.528;9.942;2022-10-17T12:38:14;7.00;;;2.47;;
34278;SDS011;20538;51.528;9.942;2022-10-17T12:40:53;3.70;;;2.05;;
34278;SDS011;20538;51.528;9.942;2022-10-17T12:45:52;5.07;;;2.33;;
34278;SDS011;20538;51.528;9.942;2022-10-17T12:51:07;6.30;;;2.00;;
34278;SDS011;20538;51.528;9.942;2022-10-17T12:56:17;6.40;;;2.03;;
34278;SDS011;20538;51.528;9.942;2022-10-17T12:58:44;9.75;;;1.83;;
34278;SDS011;20538;51.528;9.942;2022-10-17T13:01:22;3.58;;;2.13;;
34278;SDS011;20538;51.528;9.942;2022-10-17T13:03:50;10.60;;;2.00;;
34278;SDS011;20538;51.528;9.942;2022-10-17T13:06:36;3.70;;;1.60;;
34278;SDS011;20538;51.528;9.942;2022-10-17T13:11:52;5.78;;;1.98;;
34278;SDS011;20538;51.528;9.942;2022-10-17T13:14:20;7.57;;;2.03;;
34278;SDS011;20538;51.528;9.942;2022-10-17T13:16:53;6.18;;;2.53;;
34278;SDS011;20538;51.528;9.942;2022-10-17T13:19:45;6.60;;;1.75;;
34278;SDS011;20538;51.528;9.942;2022-10-17T13:24:41;5.82;;;1.55;;
34278;SDS011;20538;51.528;9.942;2022-10-17T13:29:54;4.68;;;1.90;;
34278;SDS011;20538;51.528;9.942;2022-10-17T13:32:21;4.10;;;1.90;;
34278;SDS011;20538;51.528;9.942;2022-10-17T13:37:38;7.35;;;2.25;;
34278;SDS011;20538;51.528;9.942;2022-10-17T13:40:05;4.38;;;2.10;;
34278;SDS011;20538;51.528;9.942;2022-10-17T13:42:38;3.92;;;1.90;;
34278;SDS011;20538;51.528;9.942;2022-10-17T13:45:12;6.50;;;2.10;;
34278;SDS011;20538;51.528;9.942;2022-10-17T13:48:04;13.32;;;2.75;;
34278;SDS011;20538;51.528;9.942;2022-10-17T13:50:39;10.20;;;2.35;;
34278;SDS011;20538;51.528;9.942;2022-10-17T13:55:51;3.65;;;1.90;;
34278;SDS011;20538;51.528;9.942;2022-10-17T14:01:07;8.02;;;2.17;;
34278;SDS011;20538;51.528;9.942;2022-10-17T14:03:34;5.57;;;1.80;;
34278;SDS011;20538;51.528;9.942;2022-10-17T14:11:31;6.00;;;1.90;;
34278;SDS011;20538;51.528;9.942;2022-10-17T14:14:02;7.00;;;2.08;;
34278;SDS011;20538;51.528;9.942;2022-10-17T14:16:40;10.07;;;2.40;;
34278;SDS011;20538;51.528;9.942;2022-10-17T14:21:55;7.75;;;2.55;;
34278;SDS011;20538;51.528;9.942;2022-10-17T14:24:48;11.07;;;3.00;;
34278;SDS011;20538;51.528;9.942;2022-10-17T14:29:54;6.78;;;1.83;;
34278;SDS011;20538;51.528;9.942;2022-10-17T14:32:25;5.10;;;2.40;;
34278;SDS011;20538;51.528;9.942;2022-10-17T14:34:52;4.22;;;1.80;;
34278;SDS011;20538;51.528;9.942;2022-10-17T14:39:49;9.57;;;2.30;;
34278;SDS011;20538;51.528;9.942;2022-10-17T14:42:19;4.13;;;1.98;;
34278;SDS011;20538;51.528;9.942;2022-10-17T14:44:48;8.95;;;2.13;;
34278;SDS011;20538;51.528;9.942;2022-10-17T14:47:19;4.45;;;2.45;;
34278;SDS011;20538;51.528;9.942;2022-10-17T14:49:49;7.75;;;2.55;;
34278;SDS011;20538;51.528;9.942;2022-10-17T14:54:45;3.30;;;2.15;;
34278;SDS011;20538;51.528;9.942;2022-10-17T14:57:16;6.20;;;2.15;;
34278;SDS011;20538;51.528;9.942;2022-10-17T14:59:41;5.38;;;2.00;;
34278;SDS011;20538;51.528;9.942;2022-10-17T15:02:08;4.95;;;2.10;;
34278;SDS011;20538;51.528;9.942;2022-10-17T15:04:34;6.00;;;2.22;;
34278;SDS011;20538;51.528;9.942;2022-10-17T15:07:00;9.68;;;2.30;;
34278;SDS011;20538;51.528;9.942;2022-10-17T15:09:25;6.07;;;2.28;;
34278;SDS011;20538;51.528;9.942;2022-10-17T15:11:53;9.25;;;2.25;;
34278;SDS011;20538;51.528;9.942;2022-10-17T15:14:22;6.88;;;2.30;;
34278;SDS011;20538;51.528;9.942;2022-10-17T15:16:48;10.32;;;2.80;;
34278;SDS011;20538;51.528;9.942;2022-10-17T15:19:13;9.82;;;2.50;;
34278;SDS011;20538;51.528;9.942;2022-10-17T15:21:39;7.03;;;2.00;;
34278;SDS011;20538;51.528;9.942;2022-10-17T15:24:05;5.28;;;2.75;;
34278;SDS011;20538;51.528;9.942;2022-10-17T15:26:31;9.05;;;2.50;;
34278;SDS011;20538;51.528;9.942;2022-10-17T15:28:58;10.88;;;2.50;;
34278;SDS011;20538;51.528;9.942;2022-10-17T15:31:26;6.47;;;2.40;;
34278;SDS011;20538;51.528;9.942;2022-10-17T15:33:53;9.35;;;2.97;;
34278;SDS011;20538;51.528;9.942;2022-10-17T15:38:50;4.80;;;2.25;;
34278;SDS011;20538;51.528;9.942;2022-10-17T15:41:17;9.77;;;2.53;;
34278;SDS011;20538;51.528;9.942;2022-10-17T15:43:43;6.88;;;2.33;;
34278;SDS011;20538;51.528;9.942;2022-10-17T15:46:11;6.80;;;2.63;;
34278;SDS011;20538;51.528;9.942;2022-10-17T15:48:39;5.20;;;2.45;;
34278;SDS011;20538;51.528;9.942;2022-10-17T15:51:05;5.85;;;2.17;;
34278;SDS011;20538;51.528;9.942;2022-10-17T15:53:31;6.20;;;2.53;;
34278;SDS011;20538;51.528;9.942;2022-10-17T15:55:57;5.63;;;2.80;;
34278;SDS011;20538;51.528;9.942;2022-10-17T15:58:23;9.48;;;2.50;;
34278;SDS011;20538;51.528;9.942;2022-10-17T16:00:52;7.95;;;2.88;;
34278;SDS011;20538;51.528;9.942;2022-10-17T16:03:18;6.43;;;2.85;;
34278;SDS011;20538;51.528;9.942;2022-10-17T16:05:43;6.05;;;2.55;;
34278;SDS011;20538;51.528;9.942;2022-10-17T16:08:09;6.07;;;2.80;;
34278;SDS011;20538;51.528;9.942;2022-10-17T16:10:35;4.68;;;2.30;;
34278;SDS011;20538;51.528;9.942;2022-10-17T16:13:03;6.60;;;2.80;;
34278;SDS011;20538;51.528;9.942;2022-10-17T16:15:29;8.70;;;2.75;;
34278;SDS011;20538;51.528;9.942;2022-10-17T16:17:55;9.00;;;2.78;;
34278;SDS011;20538;51.528;9.942;2022-10-17T16:20:22;8.07;;;2.78;;
34278;SDS011;20538;51.528;9.942;2022-10-17T16:22:48;5.57;;;2.80;;
34278;SDS011;20538;51.528;9.942;2022-10-17T16:25:21;7.45;;;2.72;;
34278;SDS011;20538;51.528;9.942;2022-10-17T16:27:53;8.82;;;3.17;;
34278;SDS011;20538;51.528;9.942;2022-10-17T16:30:20;9.57;;;2.70;;
34278;SDS011;20538;51.528;9.942;2022-10-17T16:32:47;3.60;;;2.90;;
34278;SDS011;20538;51.528;9.942;2022-10-17T16:35:21;10.98;;;2.80;;
34278;SDS011;20538;51.528;9.942;2022-10-17T16:40:15;9.35;;;3.65;;
34278;SDS011;20538;51.528;9.942;2022-10-17T16:42:41;14.93;;;6.13;;
34278;SDS011;20538;51.528;9.942;2022-10-17T16:45:07;9.20;;;5.72;;
34278;SDS011;20538;51.528;9.942;2022-10-17T16:47:34;9.52;;;4.82;;
34278;SDS011;20538;51.528;9.942;2022-10-17T16:49:59;11.68;;;4.53;;
34278;SDS011;20538;51.528;9.942;2022-10-17T16:52:25;9.95;;;4.40;;
34278;SDS011;20538;51.528;9.942;2022-10-17T16:54:50;9.15;;;3.70;;
34278;SDS011;20538;51.528;9.942;2022-10-17T16:57:17;7.40;;;4.00;;
34278;SDS011;20538;51.528;9.942;2022-10-17T16:59:43;9.00;;;3.58;;
34278;SDS011;20538;51.528;9.942;2022-10-17T17:02:09;8.63;;;4.05;;
34278;SDS011;20538;51.528;9.942;2022-10-17T17:04:35;10.57;;;4.03;;
34278;SDS011;20538;51.528;9.942;2022-10-17T17:07:01;7.45;;;4.13;;
34278;SDS011;20538;51.528;9.942;2022-10-17T17:09:26;6.93;;;3.88;;
34278;SDS011;20538;51.528;9.942;2022-10-17T17:11:52;6.90;;;3.75;;